Time;durP1;ratioP1;P1;durP2;ratioP2;P2;SDS_P1;SDS_P2;PMS_P1;PMS_P2;Temp;Humidity;BMP_temperature;BMP_pressure;BME280_temperature;BME280_humidity;BME280_pressure;Samples;Min_cycle;Max_cycle;Signal;HPM_P1;HPM_P2
2021/08/31 00:01:46;;;;;;;10.50;9.40;;;;;;;;;;6380245;22;20383;-76
2021/08/31 00:04:12;;;;;;;10.17;8.43;;;;;;;;;;6380926;22;20409;-76
2021/08/31 00:06:38;;;;;;;8.37;7.57;;;;;;;;;;6380303;22;20410;-76
2021/08/31 00:09:04;;;;;;;8.90;8.10;;;;;;;;;;6379995;22;20375;-76
2021/08/31 00:11:30;;;;;;;9.20;7.87;;;;;;;;;;6378121;22;20383;-75
2021/08/31 00:13:56;;;;;;;11.17;8.70;;;;;;;;;;6341972;22;20383;-76
2021/08/31 00:16:22;;;;;;;9.93;8.93;;;;;;;;;;6341980;22;20412;-76
2021/08/31 00:18:48;;;;;;;12.10;8.90;;;;;;;;;;6380646;22;20462;-76
2021/08/31 00:21:14;;;;;;;9.67;8.03;;;;;;;;;;6380243;22;20379;-76
2021/08/31 00:23:40;;;;;;;9.80;8.33;;;;;;;;;;6380612;22;20386;-75
2021/08/31 00:26:06;;;;;;;10.40;8.30;;;;;;;;;;6378007;22;20876;-76
2021/08/31 00:28:32;;;;;;;10.57;7.97;;;;;;;;;;6379815;22;20400;-75
2021/08/31 00:30:58;;;;;;;11.20;8.03;;;;;;;;;;6380419;22;20364;-76
2021/08/31 00:33:24;;;;;;;9.50;7.63;;;;;;;;;;6341958;22;20783;-76
2021/08/31 00:35:50;;;;;;;9.00;8.10;;;;;;;;;;6380213;22;20371;-76
2021/08/31 00:38:16;;;;;;;8.17;7.30;;;;;;;;;;6380284;22;20439;-76
2021/08/31 00:40:42;;;;;;;8.40;7.63;;;;;;;;;;6379533;22;20371;-76
2021/08/31 00:43:08;;;;;;;12.30;7.00;;;;;;;;;;6379042;22;20417;-75
2021/08/31 00:45:34;;;;;;;8.40;7.17;;;;;;;;;;6380367;22;20371;-76
2021/08/31 00:48:01;;;;;;;9.80;7.60;;;;;;;;;;6380218;22;20374;-76
2021/08/31 00:50:27;;;;;;;9.60;7.90;;;;;;;;;;6380083;22;20359;-75
2021/08/31 00:52:53;;;;;;;8.43;7.70;;;;;;;;;;6380082;22;20395;-75
2021/08/31 00:55:20;;;;;;;9.47;8.30;;;;;;;;;;6379717;22;20360;-76
2021/08/31 00:57:45;;;;;;;8.53;7.20;;;;;;;;;;6380064;22;20402;-76
2021/08/31 01:00:13;;;;;;;10.40;8.80;;;;;;;;;;6380193;22;20367;-76
2021/08/31 01:02:39;;;;;;;10.70;9.70;;;;;;;;;;6379702;22;20386;-75
2021/08/31 01:05:06;;;;;;;16.80;9.60;;;;;;;;;;6380328;22;20446;-76
2021/08/31 01:07:32;;;;;;;10.30;8.53;;;;;;;;;;6379924;22;20440;-76
2021/08/31 01:09:59;;;;;;;11.37;10.13;;;;;;;;;;6380255;22;20374;-76
2021/08/31 01:12:27;;;;;;;9.97;8.63;;;;;;;;;;6379334;22;20375;-76
2021/08/31 01:14:53;;;;;;;8.77;7.87;;;;;;;;;;6380103;22;20798;-76
2021/08/31 01:17:19;;;;;;;11.10;9.90;;;;;;;;;;6341440;22;20517;-76
2021/08/31 01:19:45;;;;;;;11.43;9.40;;;;;;;;;;6379773;22;20453;-76
2021/08/31 01:22:12;;;;;;;9.23;8.30;;;;;;;;;;6379614;22;20371;-76
2021/08/31 01:24:41;;;;;;;12.80;11.30;;;;;;;;;;6380233;22;20512;-76
2021/08/31 01:27:08;;;;;;;12.27;10.47;;;;;;;;;;6378840;22;20457;-76
2021/08/31 01:29:34;;;;;;;9.93;8.83;;;;;;;;;;6366654;22;20476;-76
2021/08/31 01:32:01;;;;;;;12.43;10.80;;;;;;;;;;6377722;22;20369;-76
2021/08/31 01:34:27;;;;;;;11.50;10.30;;;;;;;;;;6379261;22;20368;-76
2021/08/31 01:36:53;;;;;;;11.30;10.10;;;;;;;;;;6341125;22;20862;-76
2021/08/31 01:39:19;;;;;;;12.50;10.47;;;;;;;;;;6380061;22;20427;-76
2021/08/31 01:41:45;;;;;;;13.80;10.83;;;;;;;;;;6379161;22;20430;-75
2021/08/31 01:44:11;;;;;;;13.67;10.30;;;;;;;;;;6380121;22;20359;-76
2021/08/31 01:46:37;;;;;;;12.07;10.20;;;;;;;;;;6379976;22;20405;-76
2021/08/31 01:49:03;;;;;;;17.20;11.37;;;;;;;;;;6379928;22;20367;-75
2021/08/31 01:51:29;;;;;;;12.33;10.17;;;;;;;;;;6381180;22;20367;-76
2021/08/31 01:53:55;;;;;;;16.40;11.27;;;;;;;;;;6382421;22;20383;-75
2021/08/31 01:56:21;;;;;;;15.63;11.13;;;;;;;;;;6381118;22;20359;-76
2021/08/31 01:58:47;;;;;;;13.50;10.50;;;;;;;;;;6382212;22;20410;-76
2021/08/31 02:01:13;;;;;;;14.37;12.27;;;;;;;;;;6381543;22;20470;-75
2021/08/31 02:03:39;;;;;;;12.13;10.40;;;;;;;;;;6381921;22;20740;-75
2021/08/31 02:06:05;;;;;;;14.47;11.90;;;;;;;;;;6371550;22;20405;-75
2021/08/31 02:08:31;;;;;;;13.63;11.67;;;;;;;;;;6381054;22;20363;-75
2021/08/31 02:10:57;;;;;;;12.67;11.37;;;;;;;;;;6380739;22;20375;-76
2021/08/31 02:13:23;;;;;;;15.13;10.97;;;;;;;;;;6382180;22;20363;-76
2021/08/31 02:15:49;;;;;;;14.67;12.17;;;;;;;;;;6382017;22;20405;-76
2021/08/31 02:18:16;;;;;;;14.77;11.77;;;;;;;;;;6381770;22;20423;-76
2021/08/31 02:20:42;;;;;;;13.03;11.70;;;;;;;;;;6381723;22;20359;-75
2021/08/31 02:23:08;;;;;;;11.37;10.17;;;;;;;;;;6371688;22;20673;-76
2021/08/31 02:25:34;;;;;;;13.03;10.87;;;;;;;;;;6380738;22;20447;-76
2021/08/31 02:28:00;;;;;;;22.53;13.03;;;;;;;;;;6381417;22;20374;-75
2021/08/31 02:30:26;;;;;;;13.10;11.77;;;;;;;;;;6380427;22;20367;-76
2021/08/31 02:32:52;;;;;;;15.37;11.20;;;;;;;;;;6368921;22;20454;-76
2021/08/31 02:35:18;;;;;;;13.97;10.50;;;;;;;;;;6380196;22;20421;-76
2021/08/31 02:37:44;;;;;;;13.27;11.43;;;;;;;;;;6381408;22;20375;-76
2021/08/31 02:40:11;;;;;;;14.80;10.27;;;;;;;;;;6381230;22;20375;-76
2021/08/31 02:42:37;;;;;;;15.30;11.73;;;;;;;;;;6381283;22;20685;-75
2021/08/31 02:45:04;;;;;;;12.30;11.10;;;;;;;;;;6381614;22;20830;-76
2021/08/31 02:47:30;;;;;;;12.13;10.93;;;;;;;;;;6381306;22;20364;-74
2021/08/31 02:49:56;;;;;;;13.60;10.33;;;;;;;;;;6380849;22;20822;-75
2021/08/31 02:52:22;;;;;;;12.10;10.73;;;;;;;;;;6381048;22;20692;-75
2021/08/31 02:54:48;;;;;;;13.70;10.50;;;;;;;;;;6381251;22;20461;-75
2021/08/31 02:57:14;;;;;;;11.93;10.23;;;;;;;;;;6380240;22;20372;-75
2021/08/31 02:59:40;;;;;;;13.80;10.53;;;;;;;;;;6378730;22;20968;-75
2021/08/31 03:02:07;;;;;;;12.73;10.97;;;;;;;;;;6378696;22;20409;-75
2021/08/31 03:04:43;;;;;;;12.57;10.17;;;;;;;;;;6340699;22;20399;-75
2021/08/31 03:07:10;;;;;;;15.10;9.60;;;;;;;;;;6369888;22;20398;-75
2021/08/31 03:09:36;;;;;;;12.27;10.37;;;;;;;;;;6381259;22;20366;-75
2021/08/31 03:12:02;;;;;;;14.03;11.40;;;;;;;;;;6380238;22;20416;-75
2021/08/31 03:14:29;;;;;;;13.77;10.10;;;;;;;;;;6381212;22;20371;-75
2021/08/31 03:16:56;;;;;;;11.60;10.27;;;;;;;;;;6381122;22;20364;-75
2021/08/31 03:19:23;;;;;;;11.30;9.53;;;;;;;;;;6370900;22;20437;-75
2021/08/31 03:21:50;;;;;;;12.33;10.97;;;;;;;;;;6381004;22;20485;-75
2021/08/31 03:24:17;;;;;;;11.50;10.30;;;;;;;;;;6370588;22;20482;-75
2021/08/31 03:26:43;;;;;;;10.47;9.37;;;;;;;;;;6378540;22;20430;-76
2021/08/31 03:29:09;;;;;;;12.23;10.90;;;;;;;;;;6378691;22;20382;-76
2021/08/31 03:31:35;;;;;;;11.90;9.43;;;;;;;;;;6379748;22;20451;-75
2021/08/31 03:34:01;;;;;;;13.60;10.57;;;;;;;;;;6370320;22;20478;-75
2021/08/31 03:36:27;;;;;;;10.93;9.57;;;;;;;;;;6380642;22;20398;-75
2021/08/31 03:38:53;;;;;;;11.20;9.07;;;;;;;;;;6381038;22;20422;-75
2021/08/31 03:41:19;;;;;;;11.43;10.17;;;;;;;;;;6380014;22;20430;-75
2021/08/31 03:43:46;;;;;;;11.30;9.77;;;;;;;;;;6381105;22;20386;-75
2021/08/31 03:46:12;;;;;;;13.77;11.43;;;;;;;;;;6370513;22;20380;-76
2021/08/31 03:48:38;;;;;;;12.50;11.10;;;;;;;;;;6370529;22;20684;-75
2021/08/31 03:51:04;;;;;;;11.57;10.37;;;;;;;;;;6380487;22;20439;-75
2021/08/31 03:53:30;;;;;;;13.83;11.83;;;;;;;;;;6380117;22;20376;-75
2021/08/31 03:55:56;;;;;;;12.07;10.60;;;;;;;;;;6377960;22;20363;-75
2021/08/31 03:58:22;;;;;;;16.43;12.20;;;;;;;;;;6378623;22;20449;-75
2021/08/31 04:00:48;;;;;;;12.87;11.40;;;;;;;;;;6378417;22;20385;-75
2021/08/31 04:03:14;;;;;;;13.03;11.03;;;;;;;;;;6378841;22;20367;-75
2021/08/31 04:05:40;;;;;;;11.87;10.57;;;;;;;;;;6380495;22;20786;-75
2021/08/31 04:08:06;;;;;;;12.87;11.60;;;;;;;;;;6380640;22;20402;-75
2021/08/31 04:10:32;;;;;;;12.97;11.57;;;;;;;;;;6378161;22;20543;-75
2021/08/31 04:12:58;;;;;;;13.77;10.97;;;;;;;;;;6380624;22;20684;-75
2021/08/31 04:15:24;;;;;;;12.77;11.47;;;;;;;;;;6380483;22;20383;-75
2021/08/31 04:17:50;;;;;;;13.43;11.97;;;;;;;;;;6380668;22;20359;-75
2021/08/31 04:20:16;;;;;;;15.00;13.13;;;;;;;;;;6369864;22;20440;-75
2021/08/31 04:22:42;;;;;;;14.83;12.47;;;;;;;;;;6378733;22;20363;-75
2021/08/31 04:25:08;;;;;;;13.37;11.63;;;;;;;;;;6377934;22;20585;-75
2021/08/31 04:27:34;;;;;;;14.17;12.53;;;;;;;;;;6378395;22;20408;-75
2021/08/31 04:30:01;;;;;;;13.47;11.70;;;;;;;;;;6370038;22;20450;-75
2021/08/31 04:32:27;;;;;;;17.10;12.90;;;;;;;;;;6380078;22;20421;-75
2021/08/31 04:34:55;;;;;;;12.07;10.87;;;;;;;;;;6380424;22;20782;-75
2021/08/31 04:37:22;;;;;;;12.73;11.43;;;;;;;;;;6380022;22;20770;-75
2021/08/31 04:39:48;;;;;;;13.17;11.87;;;;;;;;;;6370038;22;20492;-75
2021/08/31 04:42:14;;;;;;;13.47;12.13;;;;;;;;;;6379340;22;20794;-75
2021/08/31 04:44:40;;;;;;;14.83;12.83;;;;;;;;;;6380119;22;20362;-75
2021/08/31 04:47:06;;;;;;;17.73;13.47;;;;;;;;;;6341521;22;20405;-74
2021/08/31 04:49:32;;;;;;;13.40;11.97;;;;;;;;;;6341798;22;20387;-75
2021/08/31 04:51:58;;;;;;;15.37;12.90;;;;;;;;;;6379821;22;20386;-75
2021/08/31 04:54:24;;;;;;;14.63;12.20;;;;;;;;;;6370286;22;20424;-75
2021/08/31 04:56:50;;;;;;;14.80;11.60;;;;;;;;;;6379485;22;20367;-75
2021/08/31 04:59:16;;;;;;;14.40;10.77;;;;;;;;;;6380266;22;20426;-75
2021/08/31 05:01:42;;;;;;;13.07;10.80;;;;;;;;;;6380586;22;20363;-75
2021/08/31 05:04:09;;;;;;;12.60;11.33;;;;;;;;;;6370248;22;20462;-75
2021/08/31 05:06:35;;;;;;;15.00;12.13;;;;;;;;;;6380153;22;20826;-76
2021/08/31 05:09:01;;;;;;;14.30;12.30;;;;;;;;;;6380156;22;20428;-74
2021/08/31 05:11:27;;;;;;;12.27;11.03;;;;;;;;;;6379432;22;20364;-75
2021/08/31 05:13:53;;;;;;;12.97;11.60;;;;;;;;;;6380315;22;20386;-75
2021/08/31 05:16:19;;;;;;;12.70;10.97;;;;;;;;;;6380139;22;20363;-75
2021/08/31 05:18:46;;;;;;;13.47;10.50;;;;;;;;;;6369882;22;20518;-75
2021/08/31 05:21:12;;;;;;;13.17;10.40;;;;;;;;;;6380001;22;20363;-75
2021/08/31 05:23:38;;;;;;;12.10;10.57;;;;;;;;;;6341691;22;20402;-75
2021/08/31 05:26:04;;;;;;;10.83;9.53;;;;;;;;;;6378806;22;20734;-75
2021/08/31 05:28:30;;;;;;;12.10;10.73;;;;;;;;;;6370110;22;20752;-75
2021/08/31 05:30:56;;;;;;;11.53;10.27;;;;;;;;;;6362435;22;20882;-75
2021/08/31 05:33:22;;;;;;;11.13;10.00;;;;;;;;;;6379982;22;20371;-75
2021/08/31 05:35:48;;;;;;;11.13;9.80;;;;;;;;;;6379752;22;20368;-75
2021/08/31 05:38:14;;;;;;;12.50;11.20;;;;;;;;;;6379695;22;20411;-75
2021/08/31 05:40:40;;;;;;;12.83;11.43;;;;;;;;;;6379087;22;20383;-75
2021/08/31 05:43:06;;;;;;;12.00;10.77;;;;;;;;;;6380512;22;20405;-75
2021/08/31 05:45:33;;;;;;;12.13;10.87;;;;;;;;;;6376833;22;20779;-75
2021/08/31 05:47:59;;;;;;;11.70;10.50;;;;;;;;;;6370011;22;20368;-76
2021/08/31 05:50:25;;;;;;;11.17;9.77;;;;;;;;;;6379818;22;20367;-76
2021/08/31 05:52:51;;;;;;;12.13;10.80;;;;;;;;;;6380093;22;20381;-76
2021/08/31 05:55:17;;;;;;;11.20;10.00;;;;;;;;;;6379499;22;20846;-76
2021/08/31 05:57:43;;;;;;;10.90;9.80;;;;;;;;;;6379766;22;20399;-76
2021/08/31 06:00:11;;;;;;;14.23;11.10;;;;;;;;;;6379969;22;20407;-75
2021/08/31 06:02:43;;;;;;;11.67;10.47;;;;;;;;;;6380238;22;20678;-76
2021/08/31 06:05:09;;;;;;;14.67;12.10;;;;;;;;;;6369789;22;20395;-76
2021/08/31 06:07:35;;;;;;;12.80;11.47;;;;;;;;;;6379334;22;20371;-75
2021/08/31 06:10:03;;;;;;;12.30;11.00;;;;;;;;;;6379219;22;20825;-75
2021/08/31 06:12:29;;;;;;;12.80;11.17;;;;;;;;;;6378803;22;20440;-76
2021/08/31 06:14:55;;;;;;;11.30;10.10;;;;;;;;;;6341768;22;20407;-75
2021/08/31 06:17:22;;;;;;;13.37;11.97;;;;;;;;;;6369379;22;20383;-76
2021/08/31 06:19:48;;;;;;;15.47;11.60;;;;;;;;;;6379945;22;20418;-75
2021/08/31 06:22:14;;;;;;;12.70;11.20;;;;;;;;;;6378816;22;20386;-74
2021/08/31 06:24:40;;;;;;;12.80;11.00;;;;;;;;;;6379972;22;20864;-75
2021/08/31 06:27:06;;;;;;;12.60;10.37;;;;;;;;;;6376660;22;20525;-75
2021/08/31 06:29:32;;;;;;;16.27;11.30;;;;;;;;;;6368279;22;20441;-75
2021/08/31 06:31:58;;;;;;;12.33;10.90;;;;;;;;;;6379717;22;20841;-75
2021/08/31 06:34:24;;;;;;;12.13;9.67;;;;;;;;;;6377140;22;20453;-74
2021/08/31 06:36:51;;;;;;;13.40;10.13;;;;;;;;;;6379303;22;20370;-75
2021/08/31 06:39:17;;;;;;;13.30;11.83;;;;;;;;;;6369679;22;20439;-75
2021/08/31 06:41:43;;;;;;;15.27;10.50;;;;;;;;;;6378053;22;20371;-75
2021/08/31 06:44:09;;;;;;;12.30;11.00;;;;;;;;;;6342292;22;20499;-75
2021/08/31 06:46:35;;;;;;;13.47;11.07;;;;;;;;;;6371119;22;20786;-75
2021/08/31 06:49:01;;;;;;;12.60;10.87;;;;;;;;;;6371022;22;20693;-75
2021/08/31 06:51:27;;;;;;;11.53;10.43;;;;;;;;;;6381278;22;20400;-72
2021/08/31 06:53:53;;;;;;;11.00;9.90;;;;;;;;;;6371579;22;20516;-72
2021/08/31 06:56:22;;;;;;;10.60;9.43;;;;;;;;;;6369999;22;20963;-70
2021/08/31 06:58:49;;;;;;;13.30;11.20;;;;;;;;;;6371391;22;20769;-74
2021/08/31 07:01:15;;;;;;;11.17;9.97;;;;;;;;;;6379095;22;20402;-74
2021/08/31 07:03:41;;;;;;;11.43;10.30;;;;;;;;;;6379347;22;20383;-73
2021/08/31 07:06:07;;;;;;;11.17;10.03;;;;;;;;;;6369475;22;20389;-73
2021/08/31 07:08:33;;;;;;;14.30;8.73;;;;;;;;;;6379747;22;20859;-73
2021/08/31 07:10:59;;;;;;;11.70;10.50;;;;;;;;;;6379692;22;20383;-73
2021/08/31 07:13:25;;;;;;;10.60;9.50;;;;;;;;;;6370139;22;20391;-73
2021/08/31 07:15:51;;;;;;;12.03;10.60;;;;;;;;;;6369350;22;20410;-74
2021/08/31 07:18:17;;;;;;;12.40;10.40;;;;;;;;;;6377930;22;20481;-73
2021/08/31 07:20:43;;;;;;;12.20;10.63;;;;;;;;;;6368995;22;20452;-73
2021/08/31 07:23:11;;;;;;;11.10;8.83;;;;;;;;;;6379283;22;20905;-73
2021/08/31 07:25:37;;;;;;;11.70;9.47;;;;;;;;;;6371564;22;20430;-74
2021/08/31 07:28:04;;;;;;;13.77;9.40;;;;;;;;;;6369103;22;20858;-73
2021/08/31 07:30:30;;;;;;;10.80;9.50;;;;;;;;;;6379298;22;20374;-74
2021/08/31 07:32:56;;;;;;;11.20;9.70;;;;;;;;;;6379639;22;20367;-74
2021/08/31 07:35:23;;;;;;;11.30;9.40;;;;;;;;;;6379537;22;20856;-75
2021/08/31 07:37:49;;;;;;;9.90;8.87;;;;;;;;;;6369312;22;20783;-74
2021/08/31 07:40:15;;;;;;;9.60;8.60;;;;;;;;;;6369044;22;20395;-74
2021/08/31 07:42:41;;;;;;;10.70;9.70;;;;;;;;;;6379980;22;20375;-74
2021/08/31 07:45:08;;;;;;;9.63;8.63;;;;;;;;;;6380522;22;20375;-73
2021/08/31 07:47:34;;;;;;;9.07;8.17;;;;;;;;;;6369230;22;20375;-73
2021/08/31 07:50:00;;;;;;;8.70;7.87;;;;;;;;;;6380122;22;20376;-74
2021/08/31 07:52:26;;;;;;;11.80;8.93;;;;;;;;;;6378902;22;20376;-72
2021/08/31 07:57:55;;;;;;;8.40;7.50;;;;;;;;;;6380199;22;20390;-72
2021/08/31 08:00:21;;;;;;;8.20;7.50;;;;;;;;;;6379828;22;20383;-73
2021/08/31 08:02:47;;;;;;;8.90;7.70;;;;;;;;;;6369746;22;20459;-73
2021/08/31 08:05:13;;;;;;;7.33;6.67;;;;;;;;;;6379791;22;20424;-73
2021/08/31 08:07:39;;;;;;;6.40;5.80;;;;;;;;;;6380042;22;20367;-74
2021/08/31 08:13:09;;;;;;;7.20;6.50;;;;;;;;;;6379965;22;20885;-73
2021/08/31 08:15:35;;;;;;;7.80;7.10;;;;;;;;;;6379947;22;20462;-72
2021/08/31 08:18:01;;;;;;;8.40;7.23;;;;;;;;;;6369581;22;20375;-73
2021/08/31 08:20:27;;;;;;;7.23;6.53;;;;;;;;;;6369111;22;20394;-73
2021/08/31 08:22:53;;;;;;;7.83;6.80;;;;;;;;;;6379748;22;20363;-73
2021/08/31 08:28:23;;;;;;;7.57;6.50;;;;;;;;;;6379765;22;20405;-73
2021/08/31 08:30:50;;;;;;;7.00;6.30;;;;;;;;;;6379645;22;20359;-73
2021/08/31 08:33:16;;;;;;;6.70;6.00;;;;;;;;;;6379612;22;20367;-73
2021/08/31 08:35:42;;;;;;;8.13;6.67;;;;;;;;;;6369235;22;20450;-73
2021/08/31 08:38:08;;;;;;;8.00;7.20;;;;;;;;;;6379616;22;20409;-73
2021/08/31 08:43:38;;;;;;;6.70;6.00;;;;;;;;;;6379839;22;20762;-73
2021/08/31 08:46:06;;;;;;;7.97;7.17;;;;;;;;;;6379621;22;20383;-73
2021/08/31 08:48:32;;;;;;;6.87;6.23;;;;;;;;;;6379649;22;20356;-74
2021/08/31 08:50:59;;;;;;;8.53;7.53;;;;;;;;;;6379603;22;20348;-73
2021/08/31 08:53:26;;;;;;;7.03;6.43;;;;;;;;;;6379485;22;20442;-73
2021/08/31 08:55:52;;;;;;;8.03;7.30;;;;;;;;;;6368259;22;20451;-73
2021/08/31 08:58:18;;;;;;;9.40;6.80;;;;;;;;;;6379253;22;20429;-73
2021/08/31 09:01:02;;;;;;;7.37;6.67;;;;;;;;;;6379115;22;20410;-74
2021/08/31 09:03:28;;;;;;;7.07;6.47;;;;;;;;;;6379568;22;20370;-73
2021/08/31 09:06:03;;;;;;;11.10;7.27;;;;;;;;;;6379613;22;20454;-73
2021/08/31 09:08:29;;;;;;;12.83;7.40;;;;;;;;;;6379122;22;20366;-73
2021/08/31 09:14:18;;;;;;;8.10;5.60;;;;;;;;;;6379423;22;20508;-73
2021/08/31 09:16:45;;;;;;;10.67;6.70;;;;;;;;;;6369118;22;20459;-73
2021/08/31 09:19:12;;;;;;;8.30;7.10;;;;;;;;;;6340631;22;20527;-73
2021/08/31 09:21:38;;;;;;;7.50;6.23;;;;;;;;;;6369026;22;20364;-73
2021/08/31 09:24:04;;;;;;;6.83;5.90;;;;;;;;;;6379384;22;20372;-73
2021/08/31 09:26:33;;;;;;;6.90;5.63;;;;;;;;;;6378764;22;20419;-73
2021/08/31 09:29:20;;;;;;;10.97;6.27;;;;;;;;;;6368887;22;20379;-73
2021/08/31 09:31:50;;;;;;;6.97;6.27;;;;;;;;;;6368636;22;20421;-73
2021/08/31 09:34:31;;;;;;;6.20;5.30;;;;;;;;;;6379125;22;20772;-74
2021/08/31 09:37:17;;;;;;;8.13;7.33;;;;;;;;;;6379095;22;20347;-74
2021/08/31 09:39:43;;;;;;;11.37;6.60;;;;;;;;;;6379206;22;20426;-74
2021/08/31 09:42:09;;;;;;;7.50;6.10;;;;;;;;;;6379203;22;20370;-74
2021/08/31 09:44:35;;;;;;;6.77;6.03;;;;;;;;;;6375327;22;20833;-74
2021/08/31 09:47:02;;;;;;;9.10;5.90;;;;;;;;;;6379002;22;20371;-74
2021/08/31 09:49:28;;;;;;;10.17;7.23;;;;;;;;;;6379271;22;20359;-74
2021/08/31 09:52:14;;;;;;;7.00;6.40;;;;;;;;;;6368687;22;20399;-73
2021/08/31 09:54:50;;;;;;;7.00;6.30;;;;;;;;;;6368864;22;20394;-73
2021/08/31 09:57:27;;;;;;;8.43;6.10;;;;;;;;;;6368526;22;20390;-73
2021/08/31 09:59:53;;;;;;;6.00;5.50;;;;;;;;;;6368535;22;20809;-73
2021/08/31 10:02:19;;;;;;;7.43;6.73;;;;;;;;;;6379147;22;20373;-74
2021/08/31 10:04:45;;;;;;;5.93;5.40;;;;;;;;;;6378622;22;20375;-73
2021/08/31 10:07:12;;;;;;;6.67;6.07;;;;;;;;;;6379038;22;20351;-73
2021/08/31 10:09:39;;;;;;;6.27;5.70;;;;;;;;;;6378949;22;20379;-73
2021/08/31 10:12:08;;;;;;;6.50;5.50;;;;;;;;;;6379268;22;20882;-74
2021/08/31 10:14:35;;;;;;;9.50;6.20;;;;;;;;;;6381136;22;20371;-74
2021/08/31 10:17:02;;;;;;;6.43;5.83;;;;;;;;;;6379329;22;20355;-74
2021/08/31 10:19:28;;;;;;;7.43;5.87;;;;;;;;;;6380253;22;20415;-74
2021/08/31 10:21:55;;;;;;;6.77;6.17;;;;;;;;;;6380317;22;20363;-74
2021/08/31 10:24:21;;;;;;;6.77;6.17;;;;;;;;;;6380306;22;20494;-74
2021/08/31 10:26:47;;;;;;;7.30;6.37;;;;;;;;;;6380003;22;20429;-74
2021/08/31 10:29:19;;;;;;;9.23;5.73;;;;;;;;;;6380910;22;20371;-74
2021/08/31 10:31:46;;;;;;;5.20;4.80;;;;;;;;;;6380108;22;20361;-74
2021/08/31 10:34:30;;;;;;;6.10;5.57;;;;;;;;;;6380675;22;20693;-73
2021/08/31 10:37:04;;;;;;;10.70;5.90;;;;;;;;;;6370580;22;20439;-74
2021/08/31 10:39:49;;;;;;;5.57;5.00;;;;;;;;;;6369571;22;20439;-74
2021/08/31 10:42:27;;;;;;;5.43;4.90;;;;;;;;;;6370056;22;20382;-74
2021/08/31 10:44:57;;;;;;;7.03;6.00;;;;;;;;;;6369601;22;20416;-74
2021/08/31 10:47:30;;;;;;;6.10;5.60;;;;;;;;;;6380278;22;20697;-74
2021/08/31 10:49:56;;;;;;;6.13;5.63;;;;;;;;;;6370084;22;20378;-74
2021/08/31 10:52:52;;;;;;;7.20;6.50;;;;;;;;;;6370061;22;20380;-73
2021/08/31 10:55:24;;;;;;;6.80;5.40;;;;;;;;;;6345528;22;20396;-74
2021/08/31 10:57:51;;;;;;;6.20;5.70;;;;;;;;;;6380069;22;20371;-73
2021/08/31 11:00:17;;;;;;;7.37;5.20;;;;;;;;;;6370237;22;20435;-72
2021/08/31 11:02:48;;;;;;;6.07;5.47;;;;;;;;;;6380622;22;20382;-74
2021/08/31 11:05:24;;;;;;;6.43;5.83;;;;;;;;;;6380438;22;20374;-71
2021/08/31 11:07:52;;;;;;;6.77;6.17;;;;;;;;;;6380202;22;20363;-73
2021/08/31 11:10:20;;;;;;;5.80;5.30;;;;;;;;;;6380057;22;20367;-73
2021/08/31 11:12:47;;;;;;;6.07;5.47;;;;;;;;;;6341580;22;20410;-72
2021/08/31 11:15:23;;;;;;;8.73;6.23;;;;;;;;;;6380419;22;20367;-73
2021/08/31 11:17:50;;;;;;;6.43;5.83;;;;;;;;;;6379932;22;20374;-74
2021/08/31 11:20:25;;;;;;;7.70;6.33;;;;;;;;;;6380171;22;20923;-72
2021/08/31 11:22:54;;;;;;;7.73;6.30;;;;;;;;;;6379148;22;20365;-74
2021/08/31 11:25:28;;;;;;;6.47;5.77;;;;;;;;;;6379281;22;20378;-74
2021/08/31 11:28:00;;;;;;;5.07;4.60;;;;;;;;;;6379541;22;20375;-73
2021/08/31 11:30:27;;;;;;;7.07;6.47;;;;;;;;;;6369121;22;20837;-74
2021/08/31 11:33:12;;;;;;;6.20;5.60;;;;;;;;;;6379428;22;20378;-75
2021/08/31 11:35:38;;;;;;;5.30;4.80;;;;;;;;;;6369549;22;20415;-74
2021/08/31 11:38:04;;;;;;;5.60;5.10;;;;;;;;;;6379412;22;20404;-75
2021/08/31 11:40:30;;;;;;;6.87;6.27;;;;;;;;;;6378847;22;20363;-74
2021/08/31 11:42:57;;;;;;;6.40;5.73;;;;;;;;;;6379621;22;20359;-80
2021/08/31 11:45:37;;;;;;;6.47;5.10;;;;;;;;;;6370047;22;20684;-76
2021/08/31 11:48:03;;;;;;;8.57;5.67;;;;;;;;;;6380560;22;20363;-75
2021/08/31 11:50:29;;;;;;;5.47;4.97;;;;;;;;;;6380398;22;20355;-75
2021/08/31 11:52:55;;;;;;;6.60;5.27;;;;;;;;;;6380302;22;20828;-75
2021/08/31 11:55:22;;;;;;;5.83;5.33;;;;;;;;;;6380044;22;20355;-77
2021/08/31 11:57:48;;;;;;;9.40;5.13;;;;;;;;;;6379398;22;20370;-75
2021/08/31 12:00:16;;;;;;;6.87;5.47;;;;;;;;;;6379934;22;20889;-74
2021/08/31 12:02:42;;;;;;;5.30;4.80;;;;;;;;;;6369723;22;20367;-75
2021/08/31 12:05:09;;;;;;;8.10;4.87;;;;;;;;;;6369505;22;20740;-74
2021/08/31 12:07:39;;;;;;;7.20;5.20;;;;;;;;;;6369508;22;20635;-76
2021/08/31 12:10:05;;;;;;;5.97;5.40;;;;;;;;;;6369576;22;20684;-75
2021/08/31 12:15:35;;;;;;;5.30;4.80;;;;;;;;;;6379964;22;20581;-75
2021/08/31 12:18:05;;;;;;;6.33;4.47;;;;;;;;;;6379856;22;20652;-75
2021/08/31 12:20:31;;;;;;;5.70;5.20;;;;;;;;;;6379853;22;20861;-75
2021/08/31 12:23:01;;;;;;;6.83;5.17;;;;;;;;;;6379578;22;20363;-74
2021/08/31 12:31:35;;;;;;;4.97;4.57;;;;;;;;;;6380335;22;20474;-75
2021/08/31 12:34:02;;;;;;;6.20;4.90;;;;;;;;;;6379827;22;20360;-74
2021/08/31 12:36:32;;;;;;;5.40;4.90;;;;;;;;;;6379979;22;20378;-74
2021/08/31 12:38:59;;;;;;;6.33;5.27;;;;;;;;;;6379417;22;20461;-74
2021/08/31 12:41:33;;;;;;;5.83;5.23;;;;;;;;;;6369646;22;20909;-74
2021/08/31 12:43:59;;;;;;;6.37;5.77;;;;;;;;;;6370044;22;20690;-75
2021/08/31 12:46:27;;;;;;;6.40;5.33;;;;;;;;;;6369836;22;20441;-74
2021/08/31 12:49:13;;;;;;;5.30;4.90;;;;;;;;;;6380144;22;20367;-75
2021/08/31 12:51:39;;;;;;;5.80;5.20;;;;;;;;;;6380104;22;20699;-74
2021/08/31 12:54:05;;;;;;;7.07;4.70;;;;;;;;;;6380029;22;20455;-75
2021/08/31 12:56:32;;;;;;;5.30;4.90;;;;;;;;;;6379628;22;20359;-75
2021/08/31 12:59:02;;;;;;;5.70;5.20;;;;;;;;;;6379894;22;20502;-75
2021/08/31 13:01:28;;;;;;;5.90;5.20;;;;;;;;;;6379894;22;20655;-74
2021/08/31 13:03:55;;;;;;;6.60;5.93;;;;;;;;;;6379200;22;20458;-75
2021/08/31 13:06:35;;;;;;;5.90;5.40;;;;;;;;;;6368812;22;20425;-75
2021/08/31 13:09:02;;;;;;;5.43;4.60;;;;;;;;;;6369333;22;20727;-75
2021/08/31 13:11:29;;;;;;;5.87;5.37;;;;;;;;;;6369086;22;20382;-75
2021/08/31 13:13:55;;;;;;;5.80;5.10;;;;;;;;;;6376698;22;20435;-76
2021/08/31 13:16:21;;;;;;;5.67;5.17;;;;;;;;;;6368145;22;20367;-75
2021/08/31 13:18:47;;;;;;;6.30;5.70;;;;;;;;;;6339872;22;20445;-77
2021/08/31 13:21:13;;;;;;;5.40;5.00;;;;;;;;;;6368234;22;20395;-77
2021/08/31 13:23:39;;;;;;;5.93;5.43;;;;;;;;;;6377988;22;20370;-76
2021/08/31 13:26:07;;;;;;;6.47;5.87;;;;;;;;;;6376278;22;20764;-76
2021/08/31 13:28:33;;;;;;;6.23;4.70;;;;;;;;;;6366139;22;20383;-76
2021/08/31 13:30:59;;;;;;;6.20;5.23;;;;;;;;;;6374470;22;20395;-76
2021/08/31 13:33:25;;;;;;;5.20;4.70;;;;;;;;;;6378556;22;20427;-76
2021/08/31 13:35:51;;;;;;;6.50;4.60;;;;;;;;;;6377076;22;20684;-76
2021/08/31 13:38:17;;;;;;;5.40;4.47;;;;;;;;;;6376405;22;20394;-76
2021/08/31 13:40:43;;;;;;;6.77;5.17;;;;;;;;;;6376454;22;20375;-76
2021/08/31 13:46:13;;;;;;;8.03;5.17;;;;;;;;;;6376772;22;20455;-75
2021/08/31 13:48:39;;;;;;;5.80;5.20;;;;;;;;;;6380062;22;20411;-74
2021/08/31 13:51:05;;;;;;;5.60;5.10;;;;;;;;;;6380715;22;20354;-75
2021/08/31 13:53:31;;;;;;;5.80;4.93;;;;;;;;;;6380953;22;20374;-75
2021/08/31 13:55:57;;;;;;;5.53;5.03;;;;;;;;;;6370275;22;20370;-75
2021/08/31 14:01:26;;;;;;;5.40;4.90;;;;;;;;;;6381122;22;20412;-75
2021/08/31 14:03:52;;;;;;;5.50;5.00;;;;;;;;;;6380877;22;20359;-75
2021/08/31 14:06:19;;;;;;;5.03;4.50;;;;;;;;;;6370545;22;20422;-75
2021/08/31 14:08:45;;;;;;;6.20;5.03;;;;;;;;;;6380742;22;20366;-75
2021/08/31 14:11:11;;;;;;;4.87;4.40;;;;;;;;;;6380524;22;20355;-75
2021/08/31 14:16:40;;;;;;;5.10;4.70;;;;;;;;;;6380573;22;20386;-75
2021/08/31 14:19:06;;;;;;;4.63;4.23;;;;;;;;;;6370277;22;20429;-75
2021/08/31 14:21:32;;;;;;;5.27;4.77;;;;;;;;;;6380471;22;20360;-75
2021/08/31 14:23:58;;;;;;;4.73;4.33;;;;;;;;;;6380827;22;20363;-75
2021/08/31 14:26:25;;;;;;;5.07;4.67;;;;;;;;;;6380226;22;20418;-75
2021/08/31 14:31:54;;;;;;;5.53;5.03;;;;;;;;;;6380694;22;20723;-76
2021/08/31 14:34:20;;;;;;;5.13;4.50;;;;;;;;;;6342098;22;20394;-75
2021/08/31 14:36:47;;;;;;;5.20;4.73;;;;;;;;;;6380616;22;20367;-76
2021/08/31 14:39:13;;;;;;;5.23;4.73;;;;;;;;;;6369910;22;20441;-76
2021/08/31 14:41:39;;;;;;;5.00;4.33;;;;;;;;;;6380345;22;20857;-76
2021/08/31 14:44:06;;;;;;;7.97;5.20;;;;;;;;;;6380581;22;20363;-76
2021/08/31 14:46:32;;;;;;;5.00;4.60;;;;;;;;;;6370176;22;20368;-76
2021/08/31 14:48:58;;;;;;;6.50;5.80;;;;;;;;;;6380260;22;20375;-75
2021/08/31 14:51:24;;;;;;;5.90;5.30;;;;;;;;;;6379807;22;20806;-76
2021/08/31 14:53:50;;;;;;;9.37;4.57;;;;;;;;;;6380356;22;20370;-76
2021/08/31 14:56:17;;;;;;;6.77;6.10;;;;;;;;;;6369823;22;20693;-75
2021/08/31 15:01:47;;;;;;;8.87;5.50;;;;;;;;;;6377699;22;20478;-75
2021/08/31 15:04:13;;;;;;;6.83;6.13;;;;;;;;;;6366241;22;20512;-75
2021/08/31 15:06:39;;;;;;;6.07;5.47;;;;;;;;;;6365735;22;20409;-75
2021/08/31 15:09:06;;;;;;;6.07;5.47;;;;;;;;;;6365742;22;20386;-75
2021/08/31 15:11:33;;;;;;;6.20;5.60;;;;;;;;;;6375570;22;20368;-72